createdAt,value
2022-11-07T00:02:21.683Z,11.10
2022-11-07T00:04:51.913Z,11.20
2022-11-07T00:07:20.448Z,11.20
2022-11-07T00:09:48.959Z,11.20
2022-11-07T00:12:17.959Z,11.20
2022-11-07T00:14:46.573Z,11.30
2022-11-07T00:17:15.175Z,11.30
2022-11-07T00:19:43.758Z,11.30
2022-11-07T00:22:14.150Z,11.30
2022-11-07T00:24:43.292Z,11.30
2022-11-07T00:27:11.896Z,11.40
2022-11-07T00:29:41.152Z,11.40
2022-11-07T00:32:10.126Z,11.40
2022-11-07T00:34:38.724Z,11.30
2022-11-07T00:37:07.350Z,11.30
2022-11-07T00:39:37.744Z,11.30
2022-11-07T00:42:06.797Z,11.20
2022-11-07T00:44:35.341Z,11.20
2022-11-07T00:47:03.850Z,11.10
2022-11-07T00:49:32.319Z,11.10
2022-11-07T00:52:00.842Z,11.10
2022-11-07T00:54:29.386Z,11.10
2022-11-07T00:56:59.831Z,11.10
2022-11-07T00:59:28.433Z,11.10
2022-11-07T01:01:57.013Z,11.10
2022-11-07T01:04:43.755Z,11.20
2022-11-07T01:07:12.220Z,11.20
2022-11-07T01:09:40.743Z,11.20
2022-11-07T01:12:10.707Z,11.30
2022-11-07T01:14:39.677Z,11.30
2022-11-07T01:17:08.155Z,11.30
2022-11-07T01:19:36.805Z,11.30
2022-11-07T01:22:05.351Z,11.40
2022-11-07T01:24:34.267Z,11.40
2022-11-07T01:27:02.825Z,11.40
2022-11-07T01:29:32.778Z,11.40
2022-11-07T01:32:01.276Z,11.40
2022-11-07T01:34:30.067Z,11.30
2022-11-07T01:36:58.653Z,11.40
2022-11-07T01:39:27.139Z,11.30
2022-11-07T01:41:55.727Z,11.40
2022-11-07T01:45:01.108Z,11.30
2022-11-07T01:47:34.680Z,11.30
2022-11-07T01:50:04.127Z,11.20
2022-11-07T01:52:35.799Z,11.20
2022-11-07T01:55:09.892Z,11.20
2022-11-07T01:57:42.336Z,11.10
2022-11-07T02:00:15.412Z,11.10
2022-11-07T02:02:47.623Z,11.10
2022-11-07T02:05:20.887Z,11.10
2022-11-07T02:07:49.861Z,11.00
2022-11-07T02:10:19.701Z,11.00
2022-11-07T02:12:48.605Z,11.00
2022-11-07T02:15:17.231Z,11.00
2022-11-07T02:17:47.651Z,11.00
2022-11-07T02:20:17.124Z,11.00
2022-11-07T02:22:54.456Z,11.00
2022-11-07T02:25:24.782Z,11.00
2022-11-07T02:27:58.576Z,11.00
2022-11-07T02:30:31.174Z,11.00
2022-11-07T02:32:59.703Z,11.10
2022-11-07T02:35:38.777Z,11.10
2022-11-07T02:38:10.890Z,11.10
2022-11-07T02:40:41.458Z,11.10
2022-11-07T02:43:13.427Z,11.10
2022-11-07T02:45:45.784Z,11.10
2022-11-07T02:48:14.487Z,11.10
2022-11-07T02:50:44.040Z,11.10
2022-11-07T02:53:13.158Z,11.10
2022-11-07T02:55:43.328Z,11.10
2022-11-07T02:58:11.822Z,11.00
2022-11-07T03:00:40.736Z,11.00
2022-11-07T03:03:09.501Z,11.10
2022-11-07T03:05:38.103Z,11.10
2022-11-07T03:08:07.099Z,11.10
2022-11-07T03:10:35.664Z,11.10
2022-11-07T03:13:05.614Z,11.10
2022-11-07T03:15:34.497Z,11.10
2022-11-07T03:18:02.963Z,11.10
2022-11-07T03:20:31.686Z,11.10
2022-11-07T03:23:00.336Z,11.10
2022-11-07T03:25:29.124Z,11.10
2022-11-07T03:27:57.741Z,11.10
2022-11-07T03:30:27.922Z,11.10
2022-11-07T03:32:56.919Z,11.10
2022-11-07T03:35:25.773Z,11.00
2022-11-07T03:37:54.308Z,11.10
2022-11-07T03:40:22.828Z,11.00
2022-11-07T03:42:51.320Z,11.10
2022-11-07T03:45:20.381Z,11.10
2022-11-07T03:47:50.385Z,11.20
2022-11-07T03:50:21.002Z,11.20
2022-11-07T03:52:50.069Z,11.20
2022-11-07T03:55:19.374Z,11.10
2022-11-07T03:57:48.481Z,11.20
2022-11-07T04:00:17.811Z,11.10
2022-11-07T04:02:46.863Z,11.10
2022-11-07T04:05:17.023Z,11.00
2022-11-07T04:07:45.667Z,11.00
2022-11-07T04:10:14.688Z,10.90
2022-11-07T04:13:00.745Z,10.90
2022-11-07T04:15:47.220Z,10.80
2022-11-07T04:18:15.759Z,10.80
2022-11-07T04:20:45.688Z,10.80
2022-11-07T04:23:14.439Z,10.80
2022-11-07T04:26:00.754Z,10.80
2022-11-07T04:28:29.197Z,10.70
2022-11-07T04:30:57.732Z,10.70
2022-11-07T04:33:26.593Z,10.70
2022-11-07T04:35:56.633Z,10.70
2022-11-07T04:38:25.263Z,10.60
2022-11-07T04:40:57.675Z,10.60
2022-11-07T04:43:28.708Z,10.60
2022-11-07T04:45:57.260Z,10.60
2022-11-07T04:48:25.814Z,10.60
2022-11-07T04:50:55.774Z,10.60
2022-11-07T04:53:24.278Z,10.60
2022-11-07T04:55:52.732Z,10.70
2022-11-07T04:58:21.623Z,10.70
2022-11-07T05:00:50.162Z,10.70
2022-11-07T05:03:19.023Z,10.70
2022-11-07T05:05:47.880Z,10.70
2022-11-07T05:08:18.319Z,10.70
2022-11-07T05:10:46.809Z,10.70
2022-11-07T05:13:15.533Z,10.70
2022-11-07T05:15:44.328Z,10.70
2022-11-07T05:18:13.245Z,10.60
2022-11-07T05:20:42.036Z,10.70
2022-11-07T05:23:13.719Z,10.60
2022-11-07T05:25:45.725Z,10.60
2022-11-07T05:28:16.146Z,10.60
2022-11-07T05:30:46.198Z,10.60
2022-11-07T05:33:17.196Z,10.60
2022-11-07T05:35:46.768Z,10.60
2022-11-07T05:38:15.452Z,10.60
2022-11-07T05:40:46.205Z,10.60
2022-11-07T05:43:16.690Z,10.60
2022-11-07T05:45:45.433Z,10.50
2022-11-07T05:48:15.061Z,10.50
2022-11-07T05:50:43.657Z,10.50
2022-11-07T05:53:12.506Z,10.50
2022-11-07T05:55:41.616Z,10.50
2022-11-07T05:58:12.727Z,10.50
2022-11-07T06:00:41.503Z,10.50
2022-11-07T06:03:10.903Z,10.50
2022-11-07T06:05:39.952Z,10.50
2022-11-07T06:08:09.493Z,10.50
2022-11-07T06:10:38.474Z,10.50
2022-11-07T06:13:10.380Z,10.60
2022-11-07T06:15:41.652Z,10.60
2022-11-07T06:18:15.324Z,10.60
2022-11-07T06:20:44.005Z,10.60
2022-11-07T06:23:13.876Z,10.60
2022-11-07T06:25:42.806Z,10.70
2022-11-07T06:28:13.362Z,10.70
2022-11-07T06:30:44.006Z,10.70
2022-11-07T06:33:14.640Z,10.80
2022-11-07T06:35:44.405Z,10.80
2022-11-07T06:38:14.565Z,10.80
2022-11-07T06:40:43.628Z,10.80
2022-11-07T06:43:15.192Z,10.80
2022-11-07T06:45:46.543Z,10.80
2022-11-07T06:48:15.549Z,10.80
2022-11-07T06:50:44.081Z,10.80
2022-11-07T06:53:14.831Z,10.90
2022-11-07T06:55:43.800Z,10.80
2022-11-07T06:58:12.769Z,10.90
2022-11-07T07:00:41.315Z,10.90
2022-11-07T07:03:12.774Z,10.90
2022-11-07T07:05:41.428Z,11.00
2022-11-07T07:08:11.768Z,11.00
2022-11-07T07:10:42.125Z,11.10
2022-11-07T07:13:11.086Z,11.10
2022-11-07T07:15:50.501Z,11.10
2022-11-07T07:18:22.243Z,11.10
2022-11-07T07:20:51.592Z,11.10
2022-11-07T07:23:21.440Z,11.20
2022-11-07T07:25:52.970Z,11.20
2022-11-07T07:28:21.532Z,11.30
2022-11-07T07:30:52.062Z,11.40
2022-11-07T07:33:22.843Z,11.50
2022-11-07T07:35:51.861Z,11.50
2022-11-07T07:38:20.503Z,11.60
2022-11-07T07:40:49.094Z,11.60
2022-11-07T07:43:17.960Z,11.70
2022-11-07T07:45:47.274Z,11.70
2022-11-07T07:48:15.817Z,11.70
2022-11-07T07:50:45.866Z,11.80
2022-11-07T07:53:14.589Z,11.80
2022-11-07T07:55:43.358Z,11.90
2022-11-07T07:58:12.272Z,11.90
2022-11-07T08:00:41.365Z,11.90
2022-11-07T08:03:11.795Z,12.00
2022-11-07T08:05:41.090Z,12.00
2022-11-07T08:08:11.363Z,12.10
2022-11-07T08:10:42.788Z,12.10
2022-11-07T08:13:12.078Z,12.10
2022-11-07T08:15:40.807Z,12.20
2022-11-07T08:18:09.322Z,12.30
2022-11-07T08:20:39.366Z,12.30
2022-11-07T08:23:16.049Z,12.30
2022-11-07T08:25:51.384Z,12.40
2022-11-07T08:28:21.141Z,12.40
2022-11-07T08:30:57.512Z,12.50
2022-11-07T08:33:26.329Z,12.60
2022-11-07T08:35:56.892Z,12.60
2022-11-07T08:38:26.880Z,12.60
2022-11-07T08:40:55.705Z,12.60
2022-11-07T08:43:24.287Z,12.60
2022-11-07T08:45:55.316Z,12.70
2022-11-07T08:48:24.762Z,12.70
2022-11-07T08:50:56.528Z,12.80
2022-11-07T08:53:28.056Z,12.80
2022-11-07T08:56:03.277Z,12.90
2022-11-07T08:58:32.017Z,13.00
2022-11-07T09:01:01.108Z,13.10
2022-11-07T09:03:58.895Z,13.20
2022-11-07T09:06:19.012Z,13.20
2022-11-07T09:08:49.110Z,13.20
2022-11-07T09:11:19.303Z,13.20
2022-11-07T09:13:48.446Z,13.20
2022-11-07T09:16:18.590Z,13.20
2022-11-07T09:18:48.718Z,13.20
2022-11-07T09:21:22.372Z,13.20
2022-11-07T09:23:53.165Z,13.30
2022-11-07T09:26:21.709Z,13.30
2022-11-07T09:28:53.189Z,13.30
2022-11-07T09:31:22.925Z,13.30
2022-11-07T09:33:51.493Z,13.40
2022-11-07T09:36:22.368Z,13.50
2022-11-07T09:38:52.348Z,13.50
2022-11-07T09:41:32.929Z,13.60
2022-11-07T09:44:14.602Z,13.80
2022-11-07T09:46:55.396Z,13.80
2022-11-07T09:49:29.834Z,13.90
2022-11-07T09:52:04.153Z,13.90
2022-11-07T09:54:39.548Z,14.00
2022-11-07T09:57:14.194Z,14.00
2022-11-07T09:59:48.352Z,14.00
2022-11-07T10:02:18.464Z,14.00
2022-11-07T10:04:48.247Z,14.00
2022-11-07T10:07:23.619Z,13.90
2022-11-07T10:10:01.692Z,13.90
2022-11-07T10:12:47.843Z,13.90
2022-11-07T10:15:25.336Z,14.00
2022-11-07T10:18:05.885Z,14.00
2022-11-07T10:20:43.075Z,14.00
2022-11-07T10:23:30.261Z,14.00
2022-11-07T10:26:07.160Z,14.00
2022-11-07T10:28:46.296Z,14.00
2022-11-07T10:31:16.647Z,14.00
2022-11-07T10:33:52.868Z,14.00
2022-11-07T10:36:26.133Z,14.00
2022-11-07T10:38:55.169Z,14.00
2022-11-07T10:41:26.362Z,14.00
2022-11-07T10:44:01.027Z,14.00
2022-11-07T10:46:38.313Z,13.90
2022-11-07T10:49:20.459Z,13.90
2022-11-07T10:51:49.493Z,13.80
2022-11-07T10:54:23.577Z,13.80
2022-11-07T10:57:03.586Z,13.70
2022-11-07T10:59:36.998Z,13.60
2022-11-07T11:02:21.208Z,13.60
2022-11-07T11:04:51.914Z,13.50
2022-11-07T11:07:25.583Z,13.50
2022-11-07T11:10:00.938Z,13.50
2022-11-07T11:12:35.035Z,13.50
2022-11-07T11:15:12.717Z,13.50
2022-11-07T11:17:42.920Z,13.50
2022-11-07T11:20:30.009Z,13.50
2022-11-07T11:22:59.840Z,13.60
2022-11-07T11:25:29.107Z,13.60
2022-11-07T11:28:06.546Z,13.60
2022-11-07T11:30:38.880Z,13.70
2022-11-07T11:33:14.001Z,13.70
2022-11-07T11:35:48.289Z,13.80
2022-11-07T11:38:23.558Z,13.90
2022-11-07T11:41:04.745Z,13.90
2022-11-07T11:43:45.874Z,13.90
2022-11-07T11:46:21.821Z,14.00
2022-11-07T11:48:55.214Z,14.10
2022-11-07T11:51:32.536Z,14.10
2022-11-07T11:54:03.010Z,14.10
2022-11-07T11:56:43.479Z,14.10
2022-11-07T11:59:45.590Z,14.20
2022-11-07T12:03:02.173Z,14.20
2022-11-07T12:06:06.876Z,14.30
2022-11-07T12:09:02.970Z,14.30
2022-11-07T12:11:38.930Z,14.40
2022-11-07T12:14:31.767Z,14.50
2022-11-07T12:17:06.370Z,14.50
2022-11-07T12:19:44.814Z,14.50
2022-11-07T12:22:18.657Z,14.50
2022-11-07T12:24:53.929Z,14.50
2022-11-07T12:27:31.076Z,14.50
2022-11-07T12:30:12.563Z,14.50
2022-11-07T12:32:51.348Z,14.50
2022-11-07T12:35:34.960Z,14.60
2022-11-07T12:38:30.916Z,14.60
2022-11-07T12:41:08.300Z,14.60
2022-11-07T12:43:54.980Z,14.70
2022-11-07T12:46:32.643Z,14.70
2022-11-07T12:49:33.330Z,14.80
2022-11-07T12:52:11.735Z,14.80
2022-11-07T12:54:48.389Z,14.90
2022-11-07T12:57:20.514Z,14.90
2022-11-07T12:59:56.230Z,14.90
2022-11-07T13:02:47.074Z,14.90
2022-11-07T13:05:35.503Z,14.90
2022-11-07T13:08:10.039Z,14.80
2022-11-07T13:10:50.116Z,14.70
2022-11-07T13:13:23.210Z,14.70
2022-11-07T13:16:14.443Z,14.70
2022-11-07T13:18:43.335Z,14.70
2022-11-07T13:21:12.108Z,14.60
2022-11-07T13:23:41.787Z,14.60
2022-11-07T13:26:32.867Z,14.70
2022-11-07T13:29:00.975Z,14.70
2022-11-07T13:31:38.673Z,14.70
2022-11-07T13:34:25.726Z,14.70
2022-11-07T13:37:02.094Z,14.70
2022-11-07T13:39:32.316Z,14.80
2022-11-07T13:42:02.373Z,14.90
2022-11-07T13:44:37.813Z,14.90
2022-11-07T13:47:14.064Z,15.00
2022-11-07T13:49:47.919Z,15.10
2022-11-07T13:52:24.390Z,15.10
2022-11-07T13:54:58.408Z,15.20
2022-11-07T13:57:32.816Z,15.10
2022-11-07T14:00:07.884Z,15.20
2022-11-07T14:02:37.352Z,15.10
2022-11-07T14:05:18.569Z,15.10
2022-11-07T14:07:50.847Z,15.10
2022-11-07T14:10:25.683Z,15.20
2022-11-07T14:13:04.411Z,15.10
2022-11-07T14:15:33.627Z,15.10
2022-11-07T14:18:02.996Z,15.10
2022-11-07T14:20:33.683Z,15.00
2022-11-07T14:23:02.891Z,15.00
2022-11-07T14:25:38.865Z,15.00
2022-11-07T14:28:16.675Z,15.00
2022-11-07T14:30:53.914Z,14.90
2022-11-07T14:33:26.878Z,14.90
2022-11-07T14:36:06.442Z,14.80
2022-11-07T14:38:36.870Z,14.80
2022-11-07T14:41:06.689Z,14.80
2022-11-07T14:43:40.160Z,14.80
2022-11-07T14:46:13.893Z,14.80
2022-11-07T14:48:47.479Z,14.80
2022-11-07T14:51:20.349Z,14.70
2022-11-07T14:53:56.591Z,14.70
2022-11-07T14:56:30.128Z,14.70
2022-11-07T14:59:00.174Z,14.70
2022-11-07T15:01:32.953Z,14.70
2022-11-07T15:04:05.124Z,14.60
2022-11-07T15:06:42.457Z,14.60
2022-11-07T15:09:12.706Z,14.60
2022-11-07T15:11:45.560Z,14.60
2022-11-07T15:14:25.162Z,14.60
2022-11-07T15:16:55.422Z,14.60
2022-11-07T15:19:25.623Z,14.50
2022-11-07T15:21:58.242Z,14.50
2022-11-07T15:24:38.763Z,14.50
2022-11-07T15:27:20.020Z,14.50
2022-11-07T15:29:53.635Z,14.50
2022-11-07T15:32:24.094Z,14.50
2022-11-07T15:37:53.709Z,14.50
2022-11-07T15:40:23.082Z,14.40
2022-11-07T15:42:51.841Z,14.40
2022-11-07T15:45:22.358Z,14.40
2022-11-07T15:47:51.594Z,14.40
2022-11-07T15:50:22.847Z,14.40
2022-11-07T15:52:54.187Z,14.40
2022-11-07T15:55:24.898Z,14.40
2022-11-07T15:57:55.483Z,14.50
2022-11-07T16:00:25.994Z,14.40
2022-11-07T16:02:54.815Z,14.30
2022-11-07T16:05:23.734Z,14.30
2022-11-07T16:07:53.960Z,14.30
2022-11-07T16:10:25.921Z,14.30
2022-11-07T16:12:55.160Z,14.30
2022-11-07T16:15:26.694Z,14.30
2022-11-07T16:17:57.613Z,14.30
2022-11-07T16:20:26.601Z,14.30
2022-11-07T16:23:01.926Z,14.20
2022-11-07T16:25:33.521Z,14.30
2022-11-07T16:28:03.796Z,14.20
2022-11-07T16:30:33.920Z,14.30
2022-11-07T16:33:02.752Z,14.20
2022-11-07T16:35:32.553Z,14.30
2022-11-07T16:38:02.710Z,14.30
2022-11-07T16:40:31.415Z,14.30
2022-11-07T16:43:00.282Z,14.20
2022-11-07T16:45:30.092Z,14.30
2022-11-07T16:47:59.998Z,14.30
2022-11-07T16:50:28.724Z,14.30
2022-11-07T16:52:57.493Z,14.30
2022-11-07T16:55:27.904Z,14.30
2022-11-07T16:57:57.668Z,14.20
2022-11-07T17:00:26.890Z,14.20
2022-11-07T17:02:57.024Z,14.20
2022-11-07T17:05:25.865Z,14.20
2022-11-07T17:07:55.963Z,14.20
2022-11-07T17:10:26.414Z,14.20
2022-11-07T17:12:56.588Z,14.20
2022-11-07T17:15:25.293Z,14.20
2022-11-07T17:18:00.600Z,14.20
2022-11-07T17:20:50.533Z,14.20
2022-11-07T17:23:25.309Z,14.10
2022-11-07T17:25:59.786Z,14.20
2022-11-07T17:28:30.046Z,14.20
2022-11-07T17:30:58.659Z,14.10
2022-11-07T17:33:27.662Z,14.10
2022-11-07T17:35:56.908Z,14.10
2022-11-07T17:38:26.948Z,14.10
2022-11-07T17:40:55.729Z,14.10
2022-11-07T17:43:25.120Z,14.10
2022-11-07T17:45:55.359Z,14.10
2022-11-07T17:48:24.398Z,14.10
2022-11-07T17:50:53.871Z,14.10
2022-11-07T17:53:22.787Z,14.10
2022-11-07T17:55:52.176Z,14.10
2022-11-07T17:58:21.631Z,14.10
2022-11-07T18:00:51.528Z,14.00
2022-11-07T18:03:21.794Z,14.00
2022-11-07T18:05:51.257Z,14.00
2022-11-07T18:08:38.567Z,14.00
2022-11-07T18:11:14.156Z,14.00
2022-11-07T18:13:46.277Z,14.00
2022-11-07T18:16:18.163Z,14.00
2022-11-07T18:18:52.288Z,14.00
2022-11-07T18:21:21.605Z,14.00
2022-11-07T18:23:50.673Z,14.00
2022-11-07T18:26:21.946Z,14.00
2022-11-07T18:28:51.527Z,14.00
2022-11-07T18:31:21.806Z,14.10
2022-11-07T18:33:58.586Z,14.10
2022-11-07T18:36:30.839Z,14.10
2022-11-07T18:39:03.525Z,14.10
2022-11-07T18:41:32.812Z,14.00
2022-11-07T18:44:04.784Z,14.00
2022-11-07T18:46:34.274Z,14.10
2022-11-07T18:49:05.753Z,14.10
2022-11-07T18:51:38.321Z,14.00
2022-11-07T18:54:07.789Z,14.00
2022-11-07T18:56:37.301Z,14.00
2022-11-07T18:59:06.212Z,14.00
2022-11-07T19:01:35.467Z,14.00
2022-11-07T19:04:16.433Z,14.00
2022-11-07T19:06:59.177Z,14.00
2022-11-07T19:09:33.151Z,14.00
2022-11-07T19:12:02.515Z,14.10
2022-11-07T19:14:32.318Z,14.10
2022-11-07T19:17:01.326Z,14.00
2022-11-07T19:19:32.396Z,14.10
2022-11-07T19:22:01.739Z,14.10
2022-11-07T19:24:30.768Z,14.10
2022-11-07T19:27:01.210Z,14.10
2022-11-07T19:29:31.102Z,14.10
2022-11-07T19:32:00.110Z,14.10
2022-11-07T19:34:30.878Z,14.10
2022-11-07T19:37:00.182Z,14.00
2022-11-07T19:39:31.025Z,14.00
2022-11-07T19:42:00.043Z,14.00
2022-11-07T19:44:30.175Z,14.00
2022-11-07T19:46:59.935Z,14.00
2022-11-07T19:49:28.884Z,14.00
2022-11-07T19:51:59.881Z,13.90
2022-11-07T19:54:30.217Z,13.90
2022-11-07T19:56:59.588Z,13.90
2022-11-07T19:59:28.674Z,13.90
2022-11-07T20:02:26.372Z,13.90
2022-11-07T20:04:48.966Z,13.90
2022-11-07T20:07:20.106Z,13.90
2022-11-07T20:09:49.560Z,13.90
2022-11-07T20:12:19.998Z,13.90
2022-11-07T20:14:49.135Z,13.90
2022-11-07T20:17:19.144Z,13.90
2022-11-07T20:19:48.163Z,13.90
2022-11-07T20:22:18.485Z,14.00
2022-11-07T20:24:48.034Z,14.00
2022-11-07T20:27:18.150Z,14.00
2022-11-07T20:29:47.411Z,13.90
2022-11-07T20:32:16.308Z,14.00
2022-11-07T20:34:47.792Z,13.90
2022-11-07T20:37:22.597Z,13.90
2022-11-07T20:39:52.198Z,13.90
2022-11-07T20:42:21.397Z,13.90
2022-11-07T20:44:51.841Z,13.90
2022-11-07T20:47:21.790Z,13.80
2022-11-07T20:49:50.487Z,13.90
2022-11-07T20:52:20.680Z,13.80
2022-11-07T20:54:49.690Z,13.90
2022-11-07T20:57:18.383Z,13.90
2022-11-07T20:59:47.469Z,13.90
2022-11-07T21:02:16.301Z,13.90
2022-11-07T21:05:11.435Z,13.80
2022-11-07T21:07:36.380Z,13.80
2022-11-07T21:10:05.782Z,13.80
2022-11-07T21:12:37.763Z,13.70
2022-11-07T21:15:10.932Z,13.70
2022-11-07T21:17:40.433Z,13.60
2022-11-07T21:20:11.416Z,13.60
2022-11-07T21:22:42.149Z,13.50
2022-11-07T21:25:11.148Z,13.50
2022-11-07T21:27:39.901Z,13.50
2022-11-07T21:30:10.147Z,13.50
2022-11-07T21:32:39.974Z,13.50
2022-11-07T21:35:12.744Z,13.40
2022-11-07T21:37:42.957Z,13.40
2022-11-07T21:40:12.964Z,13.40
2022-11-07T21:42:41.598Z,13.40
2022-11-07T21:45:12.572Z,13.40
2022-11-07T21:47:45.724Z,13.40
2022-11-07T21:50:38.467Z,13.40
2022-11-07T21:53:12.642Z,13.30
2022-11-07T21:55:41.645Z,13.30
2022-11-07T21:58:10.685Z,13.20
2022-11-07T22:00:39.945Z,13.20
2022-11-07T22:03:09.871Z,13.20
2022-11-07T22:05:40.450Z,13.10
2022-11-07T22:08:10.650Z,13.10
2022-11-07T22:10:39.765Z,13.10
2022-11-07T22:13:14.665Z,13.00
2022-11-07T22:15:44.870Z,13.00
2022-11-07T22:18:13.754Z,13.00
2022-11-07T22:20:42.900Z,13.00
2022-11-07T22:23:13.354Z,12.90
2022-11-07T22:25:42.264Z,12.90
2022-11-07T22:28:10.989Z,12.90
2022-11-07T22:30:40.360Z,12.90
2022-11-07T22:33:09.038Z,12.90
2022-11-07T22:35:38.239Z,12.90
2022-11-07T22:38:06.970Z,12.90
2022-11-07T22:40:37.071Z,12.90
2022-11-07T22:43:05.962Z,12.90
2022-11-07T22:45:38.319Z,12.90
2022-11-07T22:48:07.704Z,12.80
2022-11-07T22:50:36.817Z,12.80
2022-11-07T22:53:06.154Z,12.80
2022-11-07T22:55:38.840Z,12.70
2022-11-07T22:58:10.820Z,12.70
2022-11-07T23:00:39.741Z,12.60
2022-11-07T23:03:08.508Z,12.60
2022-11-07T23:05:37.340Z,12.60
2022-11-07T23:08:07.820Z,12.50
2022-11-07T23:10:37.851Z,12.50
2022-11-07T23:13:06.671Z,12.50
2022-11-07T23:15:35.702Z,12.50
2022-11-07T23:18:04.271Z,12.40
2022-11-07T23:20:50.170Z,12.40
2022-11-07T23:23:19.281Z,12.40
2022-11-07T23:25:49.616Z,12.40
2022-11-07T23:28:18.883Z,12.30
2022-11-07T23:30:52.228Z,12.30
2022-11-07T23:33:20.988Z,12.30
2022-11-07T23:35:49.849Z,12.30
2022-11-07T23:38:20.723Z,12.20
2022-11-07T23:40:50.736Z,12.20
2022-11-07T23:43:19.227Z,12.20
2022-11-07T23:46:05.922Z,12.20
2022-11-07T23:48:52.098Z,12.10
2022-11-07T23:51:20.610Z,12.10
2022-11-07T23:54:07.142Z,12.10
2022-11-07T23:56:37.300Z,12.10
2022-11-07T23:59:23.904Z,12.00
